Etusivu
METAR-TAF:

METAR-TAF

Lentoasemat :

Weipa, Australia

Leveyspiiri: 12-40-43S, Pituuspiiri: 141-55-31E, korkeus merenpinnasta: 19 m

Tämänhetkinen sää

Tämä raportti tehtiin 52 minuuttia sitten, kello 01.00 UTC
Tuuli 7 kn idästä, vaihdellen idän/koillisen ja kaakon välillä
Lämpötila 32°C
Kosteus 52%
Ilmanpaine 1009 hPa
Näkyvyys 10 km tai enemmän
Hajanaisia pilviä 3300 ft:n korkeudessa

METAR: YBWP 280100Z AUTO 08007KT 060V140 9999 // SCT033 32/21 Q1009

Aika: 11:52 (01:52 UTC)


TAF: puuttuu

Säähavainnot ja -ennusteet yli 4000 lentoasemalta (METAR- ja TAF-raportit).

Käytössä olevat sääasemat on merkitty karttaan keltaisilla ja punaisilla pisteillä.

Aseta hiiri pisteen päälle nähdäksesi sääaseman nimen.

Klikkaa sitten nähdäksesi säähavainnot ja -ennusteet.

Kartan vaihtaminen: klikkaa mustalla rastilla varustettuja vihreitä pisteitä, niin voit zoomata sisään; viivalla varustettua vihreää pistettä, niin voit zoomata ulos tai vihreitä nuolia, niin pääset viereisille kartoille.


METAR-TAF: